Map

Track Data

SID SEASON NUMBER BASIN SUBBASIN NAME ISO_TIME NATURE LAT LON WMO_WIND WMO_PRES WMO_AGENCY TRACK_TYPE DIST2LAND LANDFALL IFLAG USA_AGENCY USA_ATCF_ID USA_LAT USA_LON USA_RECORD USA_STATUS USA_WIND USA_PRES USA_SSHS USA_R34_NE USA_R34_SE USA_R34_SW USA_R34_NW USA_R50_NE USA_R50_SE USA_R50_SW USA_R50_NW USA_R64_NE USA_R64_SE USA_R64_SW USA_R64_NW USA_POCI USA_ROCI USA_RMW USA_EYE TOKYO_LAT TOKYO_LON TOKYO_GRADE TOKYO_WIND TOKYO_PRES TOKYO_R50_DIR TOKYO_R50_LONG TOKYO_R50_SHORT TOKYO_R30_DIR TOKYO_R30_LONG TOKYO_R30_SHORT TOKYO_LAND CMA_LAT CMA_LON CMA_CAT CMA_WIND CMA_PRES HKO_LAT HKO_LON HKO_CAT HKO_WIND HKO_PRES NEWDELHI_LAT NEWDELHI_LON NEWDELHI_GRADE NEWDELHI_WIND NEWDELHI_PRES NEWDELHI_CI NEWDELHI_DP NEWDELHI_POCI REUNION_LAT REUNION_LON REUNION_TYPE REUNION_WIND REUNION_PRES REUNION_TNUM REUNION_CI REUNION_RMW REUNION_R34_NE REUNION_R34_SE REUNION_R34_SW REUNION_R34_NW REUNION_R50_NE REUNION_R50_SE REUNION_R50_SW REUNION_R50_NW REUNION_R64_NE REUNION_R64_SE REUNION_R64_SW REUNION_R64_NW BOM_LAT BOM_LON BOM_TYPE BOM_WIND BOM_PRES BOM_TNUM BOM_CI BOM_RMW BOM_R34_NE BOM_R34_SE BOM_R34_SW BOM_R34_NW BOM_R50_NE BOM_R50_SE BOM_R50_SW BOM_R50_NW BOM_R64_NE BOM_R64_SE BOM_R64_SW BOM_R64_NW BOM_ROCI BOM_POCI BOM_EYE BOM_POS_METHOD BOM_PRES_METHOD NADI_LAT NADI_LON NADI_CAT NADI_WIND NADI_PRES WELLINGTON_LAT WELLINGTON_LON WELLINGTON_WIND WELLINGTON_PRES DS824_LAT DS824_LON DS824_STAGE DS824_WIND DS824_PRES TD9636_LAT TD9636_LON TD9636_STAGE TD9636_WIND TD9636_PRES TD9635_LAT TD9635_LON TD9635_WIND TD9635_PRES TD9635_ROCI NEUMANN_LAT NEUMANN_LON NEUMANN_CLASS NEUMANN_WIND NEUMANN_PRES MLC_LAT MLC_LON MLC_CLASS MLC_WIND MLC_PRES USA_GUST BOM_GUST BOM_GUST_PER REUNION_GUST REUNION_GUST_PER USA_SEAHGT USA_SEARAD_NE USA_SEARAD_SE USA_SEARAD_SW USA_SEARAD_NW STORM_SPEED STORM_DIR
1924235N12128 1924 28 WP MM NOT_NAMED 1924-08-21 22:00:00 NR 12.0000 128.100 main 274 250 __________O___ -1 12.0000 128.100 4 13 313
1924235N12128 1924 28 WP MM NOT_NAMED 1924-08-22 00:00:00 NR 12.2834 127.789 main 250 203 __________P___ -1 12.2834 127.789 4 12 313
1924235N12128 1924 28 WP MM NOT_NAMED 1924-08-22 03:00:00 NR 12.7020 127.319 main 203 173 __________P___ -1 12.7020 127.319 4 12 312
1924235N12128 1924 28 WP MM NOT_NAMED 1924-08-22 06:00:00 NR 13.1045 126.844 main 173 163 __________P___ -1 13.1045 126.844 4 12 310
1924235N12128 1924 28 WP MM NOT_NAMED 1924-08-22 09:00:00 NR 13.4815 126.363 main 171 163 __________P___ -1 13.4815 126.363 4 12 308
1924235N12128 1924 28 WP MM NOT_NAMED 1924-08-22 10:00:00 NR 13.6000 126.200 main 164 157 __________O___ -1 13.6000 126.200 4 12 306
1924235N12128 1924 28 WP MM NOT_NAMED 1924-08-22 12:00:00 NR 13.8250 125.871 main 162 110 __________P___ -1 13.8250 125.871 4 12 303
1924235N12128 1924 28 WP MM NOT_NAMED 1924-08-22 15:00:00 NR 14.1374 125.359 main 110 70 __________P___ -1 14.1374 125.359 4 12 300
1924235N12128 1924 28 WP MM NOT_NAMED 1924-08-22 18:00:00 NR 14.4285 124.812 main 70 64 __________P___ -1 14.4285 124.812 4 13 297
1924235N12128 1924 28 WP MM NOT_NAMED 1924-08-22 21:00:00 NR 14.7079 124.213 main 78 78 __________P___ -1 14.7079 124.213 4 13 295
1924235N12128 1924 28 WP MM NOT_NAMED 1924-08-22 22:00:00 NR 14.8000 124.000 main 90 90 __________O___ -1 14.8000 124.000 4 14 294
1924235N12128 1924 28 WP MM NOT_NAMED 1924-08-23 00:00:00 NR 14.9889 123.553 main 116 104 __________P___ -1 14.9889 123.553 4 15 292
1924235N12128 1924 28 WP MM NOT_NAMED 1924-08-23 03:00:00 NR 15.2660 122.833 main 116 56 __________P___ -1 15.2660 122.833 4 15 291
1924235N12128 1924 28 WP MM NOT_NAMED 1924-08-23 06:00:00 NR 15.5383 122.066 main 56 0 __________P___ -1 15.5383 122.066 4 16 290
1924235N12128 1924 28 WP MM NOT_NAMED 1924-08-23 09:00:00 NR 15.8093 121.270 main 0 0 __________P___ -1 15.8093 121.270 4 16 289
1924235N12128 1924 28 WP MM NOT_NAMED 1924-08-23 10:00:00 NR 15.9000 121.000 main 0 0 __________O___ -1 15.9000 121.000 4 17 289
1924235N12128 1924 28 WP MM NOT_NAMED 1924-08-23 12:00:00 NR 16.0835 120.443 main 0 0 __________P___ -1 16.0835 120.443 4 17 289
1924235N12128 1924 28 WP MM NOT_NAMED 1924-08-23 15:00:00 NR 16.3589 119.589 main 24 33 __________P___ -1 16.3589 119.589 4 17 289
1924235N12128 1924 28 WP MM NOT_NAMED 1924-08-23 18:00:00 NR 16.6339 118.745 main 122 122 __________P___ -1 16.6339 118.745 4 17 289
1924235N12128 1924 28 WP MM NOT_NAMED 1924-08-23 21:00:00 NR 16.9085 117.948 main 213 213 __________P___ -1 16.9085 117.948 4 16 290
1924235N12128 1924 28 WP MM NOT_NAMED 1924-08-23 22:00:00 NR 17.0000 117.700 main 237 237 __________O___ -1 17.0000 117.700 4 14 293
1924235N12128 1924 28 WP MM NOT_NAMED 1924-08-24 00:00:00 NR 17.1897 117.261 main 284 294 __________P___ -1 17.1897 117.261 4 13 296
1924235N12128 1924 28 WP MM NOT_NAMED 1924-08-24 03:00:00 NR 17.4754 116.660 main 356 366 __________P___ -1 17.4754 116.660 4 13 297
1924235N12128 1924 28 WP MM NOT_NAMED 1924-08-24 06:00:00 NR 17.7546 116.090 main 427 427 __________P___ -1 17.7546 116.090 4 12 296
1924235N12128 1924 28 WP MM NOT_NAMED 1924-08-24 09:00:00 NR 18.0176 115.505 main 494 481 __________P___ -1 18.0176 115.505 4 12 295
1924235N12128 1924 28 WP MM NOT_NAMED 1924-08-24 10:00:00 NR 18.1000 115.300 main 481 429 __________O___ -1 18.1000 115.300 4 14 290
1924235N12128 1924 28 WP MM NOT_NAMED 1924-08-24 12:00:00 NR 18.2453 114.834 main 429 352 __________P___ -1 18.2453 114.834 4 14 287
1924235N12128 1924 28 WP MM NOT_NAMED 1924-08-24 15:00:00 NR 18.4443 114.104 main 352 275 __________P___ -1 18.4443 114.104 4 15 286
1924235N12128 1924 28 WP MM NOT_NAMED 1924-08-24 18:00:00 NR 18.6341 113.361 main 275 190 __________P___ -1 18.6341 113.361 4 14 285
1924235N12128 1924 28 WP MM NOT_NAMED 1924-08-24 21:00:00 NR 18.8304 112.634 main 190 166 __________P___ -1 18.8304 112.634 4 14 286
1924235N12128 1924 28 WP MM NOT_NAMED 1924-08-24 22:00:00 NR 18.9000 112.400 main 166 109 __________O___ -1 18.9000 112.400 4 14 289
1924235N12128 1924 28 WP MM NOT_NAMED 1924-08-25 00:00:00 NR 19.0521 111.945 main 109 45 __________P___ -1 19.0521 111.945 4 14 290
1924235N12128 1924 28 WP MM NOT_NAMED 1924-08-25 03:00:00 NR 19.2934 111.287 main 45 0 __________P___ -1 19.2934 111.287 4 13 292
1924235N12128 1924 28 WP MM NOT_NAMED 1924-08-25 06:00:00 NR 19.5474 110.664 main 0 0 __________P___ -1 19.5474 110.664 4 12 295
1924235N12128 1924 28 WP MM NOT_NAMED 1924-08-25 09:00:00 NR 19.8107 110.083 main 0 0 __________P___ -1 19.8107 110.083 4 12 296
1924235N12128 1924 28 WP MM NOT_NAMED 1924-08-25 10:00:00 NR 19.9000 109.900 main 0 0 __________O___ -1 19.9000 109.900 4 11 298
1924235N12128 1924 28 WP MM NOT_NAMED 1924-08-25 12:00:00 NR 20.0802 109.550 main 22 22 __________P___ -1 20.0802 109.550 4 11 300
1924235N12128 1924 28 WP MM NOT_NAMED 1924-08-25 15:00:00 NR 20.3538 109.058 main 69 74 __________P___ -1 20.3538 109.058 4 11 302
1924235N12128 1924 28 WP MM NOT_NAMED 1924-08-25 18:00:00 NR 20.6301 108.595 main 108 59 __________P___ -1 20.6301 108.595 4 10 303
1924235N12128 1924 28 WP MM NOT_NAMED 1924-08-25 21:00:00 NR 20.9076 108.148 main 59 45 __________P___ -1 20.9076 108.148 4 10 304
1924235N12128 1924 28 WP MM NOT_NAMED 1924-08-25 22:00:00 NR 21.0000 108.000 main 45 __________O___ -1 21.0000 108.000 7 10 305

Digital Typhoon Data and Search

About IBTrACS Database

This database is a web-friendly format of International Best Track Archive for Climate Stewardship (IBTrACS), a global best track data archive curated by NOAA dating back to 1842.

Updated: 2021-11-26